KIRS/IRS METAR and TAF weather

Enter ICAO airport designator
Station Type Date Time Source
KIRS METAR 2019/06/17 06:56 UTC NOAA

KIRS 170656Z AUTO 12006KT 2SM BR OVC003 18/17 A2992 RMK AO2 T01760170


Station Type Date Time Source
KIRS Decoded METAR 2019/06/17 06:56 UTC NOAA

Sturgis, Kirsch Municipal Airport, MI, United States (KIRS) 41-48-46N 085-26-21W
Jun 17, 2019 - 02:56 AM EDT / 2019.06.17 0656 UTC
Wind: from the ESE (120 degrees) at 7 MPH (6 KT):0
Visibility: 2 mile(s):0
Sky conditions: overcast
Weather: mist
Temperature: 63.7 F (17.6 C)
Dew Point: 62.6 F (17.0 C)
Relative Humidity: 96%
Pressure (altimeter): 29.92 in. Hg (1013 hPa)
ob: KIRS 170656Z AUTO 12006KT 2SM BR OVC003 18/17 A2992 RMK AO2 T01760170
cycle: 7

Station Type Date Time Source
KIRS TAF UTC NOAA

Error!

Example: see airport list